East Providence, RI (02914)

11:30 PM EDT on August 28, 2016 (GMT -0400)
Richmond Square | | Change Station

Elev 18 ft 41.83 °N, 71.38 °W | Updated 1 minute ago

Scattered Clouds
Scattered Clouds
71.1 °F
Feels Like 72 °F
N
2.0
Wind Variable Wind from SW
Gusts 5.0 mph

Today
High -- | Low -- °F
--% Chance of Precip.
Yesterday
High -- | Low -- °F
Precip. -- in
Pressure 30.18 in
Visibility 10.0 miles
Clouds Scattered Clouds 30000 ft
Heat Index 72 °F
Dew Point 64 °F
Humidity 79%
Rainfall 0.00 in
Snow Depth Not available.
6:07 AM 7:24 PM
Waning Crescent, 11% visible
METAR KPVD 290251Z 21004KT 10SM SCT300 20/17 A3018 RMK AO2 SLP218 T02000167 56001
Pressure 30.18 in
Visibility 10.0 miles
Clouds Scattered Clouds 30000 ft
Heat Index 72 °F
Dew Point 64 °F
Humidity 79%
Rainfall 0.00 in
Snow Depth Not available.
6:07 AM 7:24 PM
Waning Crescent, 11% visible
METAR KPVD 290251Z 21004KT 10SM SCT300 20/17 A3018 RMK AO2 SLP218 T02000167 56001

10-Day Weather Forecast

Almanac

Astronomy

Aug. 28, 2016 Rise Set
Actual Time
Civil Twilight
Nautical Twilight
Astronomical Twilight
Moon
Length of Visible Light
Length of Day
Tomorrow will be .
, % of the Moon is Illuminated

Today's Extremes

State Highs State Lows

Community

WunderPhotos

Upload Photos

1,935,782 photos uploaded!

WunderBlog® & News

Nearby

Air Quality

  Air Quality AQ Index Pollutant
Not available.

Snow Depth

Station Depth Elevation

Earthquake Activity

City Distance Mag. Time & Date
Minimum magnitude displayed is 2.5.

Coastal Water Temperatures

Place Temperature

Stations

Nearby Weather Stations

Station Location Temp. Windchill Dew Point Humidity Wind Precip. Elev Updated Type
                   

Watches & Warnings

There are currently no watches in effect.